Decoded Metar for LFAT (LE TOURQUET in FRANCE) (IATA:LTQ) | Meteo·Mobile Aviation Weather
aviador You're here:

LFAT Decoded Metar

LE TOURQUET in FRANCE
Report Time2019-10-22 13:00:00
UTC Time2019-10-22 13:31:26
Flight Rules vfr VFR
Wind310° at 03 kt
W.Decomp.*RWY 32: 3.0 kt HW 0.4 kt LCW
Visibility9999 m
Phenomena:N/A
Clouds:Scattered 017 Hf
Overcast 060 Hf
Expected CloudBase > 1,200 ft AGL from Temp-Dew spread
Ceiling6,000 ft
Temp14°C (ISA -1)
Dew Point11°C (82% RH)
AAT13.2°C
QNH1024 hPa
Density Alt-256 ft
Elevation46 ft
Report Wrong Elevation
Raw Report
METAR LFAT 221300Z AUTO 31003KT 270V340 9999 SCT017 OVC060 14/11 Q1024
NOSIG=

Extra information for LFAT:More info

Metar Taf Metar & Taf Last 4 Metars F.Rules Stats Wind Profile Meteogram Temp Stats Airport Information Weather charts Add Link Nearby VenuesMetar ALERT Operation Metar Decoded Social comments

LeTouquet left-side RWY
Le Touquet center RWY
Le Touquet right-side RWY